sensor_id;sensor_type;location;lat;lon;timestamp;pressure;altitude;pressure_sealevel;temperature;humidity
11108;BME280;5607;48.302;14.294;2023-01-30T00:00:12;99122.16;;;0.46;100.00
11108;BME280;5607;48.302;14.294;2023-01-30T00:02:59;99110.06;;;0.48;100.00
11108;BME280;5607;48.302;14.294;2023-01-30T00:05:46;99112.97;;;0.61;100.00
11108;BME280;5607;48.302;14.294;2023-01-30T00:08:32;99105.41;;;0.58;100.00
11108;BME280;5607;48.302;14.294;2023-01-30T00:11:20;99110.47;;;0.60;100.00
11108;BME280;5607;48.302;14.294;2023-01-30T00:14:07;99080.06;;;0.49;100.00
11108;BME280;5607;48.302;14.294;2023-01-30T00:16:54;99107.00;;;0.81;100.00
11108;BME280;5607;48.302;14.294;2023-01-30T00:19:40;99099.50;;;0.76;100.00
11108;BME280;5607;48.302;14.294;2023-01-30T00:22:27;99095.19;;;0.77;100.00
11108;BME280;5607;48.302;14.294;2023-01-30T00:25:13;99103.97;;;0.92;100.00
11108;BME280;5607;48.302;14.294;2023-01-30T00:28:00;99101.72;;;0.84;100.00
11108;BME280;5607;48.302;14.294;2023-01-30T00:30:51;99094.78;;;1.06;100.00
11108;BME280;5607;48.302;14.294;2023-01-30T00:33:38;99083.56;;;1.07;100.00
11108;BME280;5607;48.302;14.294;2023-01-30T00:36:25;99083.13;;;0.98;100.00
11108;BME280;5607;48.302;14.294;2023-01-30T00:39:11;99094.50;;;0.92;100.00
11108;BME280;5607;48.302;14.294;2023-01-30T00:41:58;99081.69;;;1.11;100.00
11108;BME280;5607;48.302;14.294;2023-01-30T00:45:04;99073.28;;;1.07;100.00
11108;BME280;5607;48.302;14.294;2023-01-30T00:48:09;99056.75;;;1.13;100.00
11108;BME280;5607;48.302;14.294;2023-01-30T00:50:56;99073.09;;;1.31;100.00
11108;BME280;5607;48.302;14.294;2023-01-30T00:53:42;99071.50;;;1.28;100.00
11108;BME280;5607;48.302;14.294;2023-01-30T00:56:29;99067.72;;;1.35;100.00
11108;BME280;5607;48.302;14.294;2023-01-30T00:59:15;99068.16;;;1.26;100.00
11108;BME280;5607;48.302;14.294;2023-01-30T01:02:02;99056.88;;;1.10;100.00
11108;BME280;5607;48.302;14.294;2023-01-30T01:04:49;99021.09;;;0.66;100.00
11108;BME280;5607;48.302;14.294;2023-01-30T01:07:35;99050.97;;;0.89;100.00
11108;BME280;5607;48.302;14.294;2023-01-30T01:10:22;99012.22;;;0.73;100.00
11108;BME280;5607;48.302;14.294;2023-01-30T01:13:08;99035.41;;;1.11;100.00
11108;BME280;5607;48.302;14.294;2023-01-30T01:15:55;99024.78;;;1.00;100.00
11108;BME280;5607;48.302;14.294;2023-01-30T01:18:42;99029.56;;;1.26;100.00
11108;BME280;5607;48.302;14.294;2023-01-30T01:21:29;99034.53;;;1.31;100.00
11108;BME280;5607;48.302;14.294;2023-01-30T01:24:15;99030.69;;;1.02;100.00
11108;BME280;5607;48.302;14.294;2023-01-30T01:27:02;99037.28;;;1.07;100.00
11108;BME280;5607;48.302;14.294;2023-01-30T01:29:49;99036.47;;;1.07;100.00
11108;BME280;5607;48.302;14.294;2023-01-30T01:32:35;99025.25;;;0.89;100.00
11108;BME280;5607;48.302;14.294;2023-01-30T01:35:22;99031.94;;;0.93;100.00
11108;BME280;5607;48.302;14.294;2023-01-30T01:38:09;99018.22;;;0.93;100.00
11108;BME280;5607;48.302;14.294;2023-01-30T01:40:55;99001.13;;;0.92;100.00
11108;BME280;5607;48.302;14.294;2023-01-30T01:44:06;98995.63;;;0.99;100.00
11108;BME280;5607;48.302;14.294;2023-01-30T01:46:57;98981.94;;;0.99;100.00
11108;BME280;5607;48.302;14.294;2023-01-30T01:49:45;98967.38;;;1.18;100.00
11108;BME280;5607;48.302;14.294;2023-01-30T01:52:31;98967.22;;;1.02;100.00
11108;BME280;5607;48.302;14.294;2023-01-30T01:55:20;98956.53;;;0.93;100.00
11108;BME280;5607;48.302;14.294;2023-01-30T01:58:16;98979.19;;;0.85;100.00
11108;BME280;5607;48.302;14.294;2023-01-30T02:01:03;98972.88;;;0.52;100.00
11108;BME280;5607;48.302;14.294;2023-01-30T02:03:54;98970.28;;;0.73;100.00
11108;BME280;5607;48.302;14.294;2023-01-30T02:06:42;98969.53;;;0.90;100.00
11108;BME280;5607;48.302;14.294;2023-01-30T02:09:29;98961.91;;;0.88;100.00
11108;BME280;5607;48.302;14.294;2023-01-30T02:12:15;98961.81;;;0.90;100.00
11108;BME280;5607;48.302;14.294;2023-01-30T02:15:03;98966.41;;;1.02;100.00
11108;BME280;5607;48.302;14.294;2023-01-30T02:17:49;98931.78;;;0.71;100.00
11108;BME280;5607;48.302;14.294;2023-01-30T02:23:58;98956.94;;;1.02;100.00
11108;BME280;5607;48.302;14.294;2023-01-30T02:30:08;98939.66;;;1.06;100.00
11108;BME280;5607;48.302;14.294;2023-01-30T02:33:15;98932.28;;;0.98;100.00
11108;BME280;5607;48.302;14.294;2023-01-30T02:36:28;98935.91;;;0.94;100.00
11108;BME280;5607;48.302;14.294;2023-01-30T02:39:25;98932.97;;;0.83;100.00
11108;BME280;5607;48.302;14.294;2023-01-30T02:42:36;98930.22;;;0.69;100.00
11108;BME280;5607;48.302;14.294;2023-01-30T02:45:30;98921.31;;;0.76;100.00
11108;BME280;5607;48.302;14.294;2023-01-30T02:48:28;98931.03;;;0.69;100.00
11108;BME280;5607;48.302;14.294;2023-01-30T02:51:22;98929.44;;;0.67;100.00
11108;BME280;5607;48.302;14.294;2023-01-30T02:54:12;98926.09;;;0.65;100.00
11108;BME280;5607;48.302;14.294;2023-01-30T02:56:59;98943.91;;;0.69;100.00
11108;BME280;5607;48.302;14.294;2023-01-30T02:59:48;98926.47;;;0.76;100.00
11108;BME280;5607;48.302;14.294;2023-01-30T03:03:02;98905.13;;;0.74;100.00
11108;BME280;5607;48.302;14.294;2023-01-30T03:06:10;98927.09;;;0.62;100.00
11108;BME280;5607;48.302;14.294;2023-01-30T03:09:14;98921.22;;;0.40;100.00
11108;BME280;5607;48.302;14.294;2023-01-30T03:18:44;98925.75;;;0.72;100.00
11108;BME280;5607;48.302;14.294;2023-01-30T03:21:32;98924.72;;;0.58;100.00
11108;BME280;5607;48.302;14.294;2023-01-30T03:24:18;98914.84;;;0.67;100.00
11108;BME280;5607;48.302;14.294;2023-01-30T03:27:09;98909.22;;;0.78;100.00
11108;BME280;5607;48.302;14.294;2023-01-30T03:29:56;98918.94;;;0.90;100.00
11108;BME280;5607;48.302;14.294;2023-01-30T03:32:43;98912.97;;;0.90;100.00
11108;BME280;5607;48.302;14.294;2023-01-30T03:35:29;98908.53;;;0.93;100.00
11108;BME280;5607;48.302;14.294;2023-01-30T03:38:16;98913.53;;;0.96;100.00
11108;BME280;5607;48.302;14.294;2023-01-30T03:41:04;98921.38;;;1.12;100.00
11108;BME280;5607;48.302;14.294;2023-01-30T03:43:51;98917.94;;;1.12;100.00
11108;BME280;5607;48.302;14.294;2023-01-30T03:46:37;98918.75;;;0.57;100.00
11108;BME280;5607;48.302;14.294;2023-01-30T03:49:24;98916.88;;;0.21;100.00
11108;BME280;5607;48.302;14.294;2023-01-30T03:52:10;98918.16;;;0.32;100.00
11108;BME280;5607;48.302;14.294;2023-01-30T03:54:57;98925.78;;;0.33;100.00
11108;BME280;5607;48.302;14.294;2023-01-30T03:57:44;98919.22;;;0.46;100.00
11108;BME280;5607;48.302;14.294;2023-01-30T04:00:31;98923.38;;;0.49;100.00
11108;BME280;5607;48.302;14.294;2023-01-30T04:03:17;98910.66;;;0.46;100.00
11108;BME280;5607;48.302;14.294;2023-01-30T04:06:04;98902.97;;;0.46;100.00
11108;BME280;5607;48.302;14.294;2023-01-30T04:08:54;98890.75;;;0.70;100.00
11108;BME280;5607;48.302;14.294;2023-01-30T04:11:41;98876.38;;;0.66;100.00
11108;BME280;5607;48.302;14.294;2023-01-30T04:14:27;98879.28;;;0.58;100.00
11108;BME280;5607;48.302;14.294;2023-01-30T04:17:14;98878.81;;;0.69;100.00
11108;BME280;5607;48.302;14.294;2023-01-30T04:20:01;98840.00;;;0.56;100.00
11108;BME280;5607;48.302;14.294;2023-01-30T04:22:47;98861.44;;;0.74;100.00
11108;BME280;5607;48.302;14.294;2023-01-30T04:25:34;98860.56;;;0.75;100.00
11108;BME280;5607;48.302;14.294;2023-01-30T04:28:20;98863.94;;;0.75;100.00
11108;BME280;5607;48.302;14.294;2023-01-30T04:31:07;98862.63;;;0.67;100.00
11108;BME280;5607;48.302;14.294;2023-01-30T04:33:54;98845.00;;;0.59;100.00
11108;BME280;5607;48.302;14.294;2023-01-30T04:36:40;98838.88;;;0.62;100.00
11108;BME280;5607;48.302;14.294;2023-01-30T04:39:27;98839.63;;;0.83;100.00
11108;BME280;5607;48.302;14.294;2023-01-30T04:42:14;98839.78;;;0.97;100.00
11108;BME280;5607;48.302;14.294;2023-01-30T04:45:00;98834.84;;;0.75;100.00
11108;BME280;5607;48.302;14.294;2023-01-30T04:47:47;98833.50;;;0.85;100.00
11108;BME280;5607;48.302;14.294;2023-01-30T04:50:33;98829.88;;;0.89;100.00
11108;BME280;5607;48.302;14.294;2023-01-30T04:53:20;98814.97;;;0.60;100.00
11108;BME280;5607;48.302;14.294;2023-01-30T04:56:07;98813.31;;;0.77;100.00
11108;BME280;5607;48.302;14.294;2023-01-30T04:58:54;98821.59;;;0.65;100.00
11108;BME280;5607;48.302;14.294;2023-01-30T05:01:41;98837.00;;;0.65;100.00
11108;BME280;5607;48.302;14.294;2023-01-30T05:04:27;98840.41;;;0.66;100.00
11108;BME280;5607;48.302;14.294;2023-01-30T05:07:14;98848.75;;;0.52;100.00
11108;BME280;5607;48.302;14.294;2023-01-30T05:10:00;98845.06;;;0.58;100.00
11108;BME280;5607;48.302;14.294;2023-01-30T05:12:48;98841.25;;;0.47;100.00
11108;BME280;5607;48.302;14.294;2023-01-30T05:15:34;98827.44;;;0.50;100.00
11108;BME280;5607;48.302;14.294;2023-01-30T05:18:21;98827.91;;;0.39;100.00
11108;BME280;5607;48.302;14.294;2023-01-30T05:21:14;98823.72;;;0.18;100.00
11108;BME280;5607;48.302;14.294;2023-01-30T05:24:00;98834.22;;;0.13;100.00
11108;BME280;5607;48.302;14.294;2023-01-30T05:26:47;98835.31;;;0.08;100.00
11108;BME280;5607;48.302;14.294;2023-01-30T05:29:33;98843.28;;;0.02;100.00
11108;BME280;5607;48.302;14.294;2023-01-30T05:32:20;98808.25;;;-0.18;100.00
11108;BME280;5607;48.302;14.294;2023-01-30T05:35:07;98826.56;;;0.12;100.00
11108;BME280;5607;48.302;14.294;2023-01-30T05:37:53;98811.16;;;0.12;100.00
11108;BME280;5607;48.302;14.294;2023-01-30T05:40:40;98818.66;;;0.16;100.00
11108;BME280;5607;48.302;14.294;2023-01-30T05:43:27;98826.66;;;0.10;100.00
11108;BME280;5607;48.302;14.294;2023-01-30T05:46:14;98792.34;;;-0.08;100.00
11108;BME280;5607;48.302;14.294;2023-01-30T05:49:01;98791.25;;;0.17;100.00
11108;BME280;5607;48.302;14.294;2023-01-30T05:51:49;98773.44;;;0.14;100.00
11108;BME280;5607;48.302;14.294;2023-01-30T05:54:36;98784.38;;;0.17;100.00
11108;BME280;5607;48.302;14.294;2023-01-30T05:57:22;98793.00;;;0.16;100.00
11108;BME280;5607;48.302;14.294;2023-01-30T06:00:09;98771.78;;;0.13;100.00
11108;BME280;5607;48.302;14.294;2023-01-30T06:02:56;98781.34;;;0.28;100.00
11108;BME280;5607;48.302;14.294;2023-01-30T06:05:43;98783.19;;;0.24;100.00
11108;BME280;5607;48.302;14.294;2023-01-30T06:08:30;98786.63;;;0.25;100.00
11108;BME280;5607;48.302;14.294;2023-01-30T06:11:17;98771.22;;;0.25;100.00
11108;BME280;5607;48.302;14.294;2023-01-30T06:14:04;98773.56;;;0.11;100.00
11108;BME280;5607;48.302;14.294;2023-01-30T06:16:50;98775.94;;;0.15;100.00
11108;BME280;5607;48.302;14.294;2023-01-30T06:19:37;98769.69;;;0.21;100.00
11108;BME280;5607;48.302;14.294;2023-01-30T06:22:24;98778.41;;;0.36;100.00
11108;BME280;5607;48.302;14.294;2023-01-30T06:25:11;98783.63;;;0.15;100.00
11108;BME280;5607;48.302;14.294;2023-01-30T06:27:57;98778.03;;;0.07;100.00
11108;BME280;5607;48.302;14.294;2023-01-30T06:30:44;98771.06;;;0.28;100.00
11108;BME280;5607;48.302;14.294;2023-01-30T06:33:30;98776.56;;;0.20;100.00
11108;BME280;5607;48.302;14.294;2023-01-30T06:36:17;98755.31;;;-0.21;100.00
11108;BME280;5607;48.302;14.294;2023-01-30T06:39:03;98782.03;;;-0.06;100.00
11108;BME280;5607;48.302;14.294;2023-01-30T06:41:50;98776.31;;;-0.13;100.00
11108;BME280;5607;48.302;14.294;2023-01-30T06:44:37;98786.19;;;-0.04;100.00
11108;BME280;5607;48.302;14.294;2023-01-30T06:47:23;98800.31;;;-0.14;100.00
11108;BME280;5607;48.302;14.294;2023-01-30T06:50:10;98793.97;;;-0.25;100.00
11108;BME280;5607;48.302;14.294;2023-01-30T06:52:57;98787.22;;;-0.08;100.00
11108;BME280;5607;48.302;14.294;2023-01-30T06:55:46;98783.97;;;-0.32;100.00
11108;BME280;5607;48.302;14.294;2023-01-30T06:58:33;98768.09;;;-0.40;100.00
11108;BME280;5607;48.302;14.294;2023-01-30T07:01:19;98801.72;;;-0.07;100.00
11108;BME280;5607;48.302;14.294;2023-01-30T07:04:09;98798.28;;;0.13;100.00
11108;BME280;5607;48.302;14.294;2023-01-30T07:06:55;98784.63;;;0.13;100.00
11108;BME280;5607;48.302;14.294;2023-01-30T07:09:42;98799.47;;;0.25;100.00
11108;BME280;5607;48.302;14.294;2023-01-30T07:12:29;98782.31;;;0.25;100.00
11108;BME280;5607;48.302;14.294;2023-01-30T07:15:16;98749.97;;;0.03;100.00
11108;BME280;5607;48.302;14.294;2023-01-30T07:18:04;98784.34;;;0.19;100.00
11108;BME280;5607;48.302;14.294;2023-01-30T07:20:50;98766.22;;;0.22;100.00
11108;BME280;5607;48.302;14.294;2023-01-30T07:23:37;98761.81;;;0.43;100.00
11108;BME280;5607;48.302;14.294;2023-01-30T07:26:23;98756.88;;;0.57;100.00
11108;BME280;5607;48.302;14.294;2023-01-30T07:29:10;98758.28;;;0.45;100.00
11108;BME280;5607;48.302;14.294;2023-01-30T07:31:57;98747.34;;;0.59;100.00
11108;BME280;5607;48.302;14.294;2023-01-30T07:34:43;98743.03;;;0.60;100.00
11108;BME280;5607;48.302;14.294;2023-01-30T07:37:30;98741.09;;;0.65;100.00
11108;BME280;5607;48.302;14.294;2023-01-30T07:40:18;98742.38;;;0.56;100.00
11108;BME280;5607;48.302;14.294;2023-01-30T07:43:07;98739.81;;;0.37;100.00
11108;BME280;5607;48.302;14.294;2023-01-30T07:45:55;98754.94;;;0.43;100.00
11108;BME280;5607;48.302;14.294;2023-01-30T07:48:43;98728.44;;;0.24;100.00
11108;BME280;5607;48.302;14.294;2023-01-30T07:51:30;98755.22;;;0.56;100.00
11108;BME280;5607;48.302;14.294;2023-01-30T07:54:18;98763.84;;;0.72;100.00
11108;BME280;5607;48.302;14.294;2023-01-30T07:57:05;98758.28;;;0.82;100.00
11108;BME280;5607;48.302;14.294;2023-01-30T07:59:51;98749.34;;;0.71;100.00
11108;BME280;5607;48.302;14.294;2023-01-30T08:02:39;98743.22;;;0.57;100.00
11108;BME280;5607;48.302;14.294;2023-01-30T08:05:26;98746.81;;;0.52;100.00
11108;BME280;5607;48.302;14.294;2023-01-30T08:08:13;98768.06;;;0.73;100.00
11108;BME280;5607;48.302;14.294;2023-01-30T08:10:59;98770.44;;;0.78;100.00
11108;BME280;5607;48.302;14.294;2023-01-30T08:13:46;98766.38;;;1.08;100.00
11108;BME280;5607;48.302;14.294;2023-01-30T08:16:33;98760.94;;;1.15;100.00
11108;BME280;5607;48.302;14.294;2023-01-30T08:19:19;98765.34;;;1.13;100.00
11108;BME280;5607;48.302;14.294;2023-01-30T08:22:06;98769.94;;;1.23;100.00
11108;BME280;5607;48.302;14.294;2023-01-30T08:24:52;98766.25;;;0.94;100.00
11108;BME280;5607;48.302;14.294;2023-01-30T08:27:39;98762.81;;;1.28;100.00
11108;BME280;5607;48.302;14.294;2023-01-30T08:30:27;98768.50;;;1.35;100.00
11108;BME280;5607;48.302;14.294;2023-01-30T08:33:15;98756.84;;;1.45;100.00
11108;BME280;5607;48.302;14.294;2023-01-30T08:36:02;98746.06;;;1.54;100.00
11108;BME280;5607;48.302;14.294;2023-01-30T08:38:48;98741.66;;;1.89;99.08
11108;BME280;5607;48.302;14.294;2023-01-30T08:41:35;98753.13;;;1.84;98.86
11108;BME280;5607;48.302;14.294;2023-01-30T08:44:22;98735.72;;;1.56;98.93
11108;BME280;5607;48.302;14.294;2023-01-30T08:47:08;98737.00;;;1.47;100.00
11108;BME280;5607;48.302;14.294;2023-01-30T08:49:57;98728.69;;;1.42;100.00
11108;BME280;5607;48.302;14.294;2023-01-30T08:52:43;98740.03;;;1.55;99.18
11108;BME280;5607;48.302;14.294;2023-01-30T08:55:30;98744.59;;;1.16;100.00
11108;BME280;5607;48.302;14.294;2023-01-30T08:58:18;98728.25;;;1.34;100.00
11108;BME280;5607;48.302;14.294;2023-01-30T09:01:05;98745.19;;;1.38;100.00
11108;BME280;5607;48.302;14.294;2023-01-30T09:03:52;98733.38;;;1.51;100.00
11108;BME280;5607;48.302;14.294;2023-01-30T09:06:38;98732.72;;;1.30;100.00
11108;BME280;5607;48.302;14.294;2023-01-30T09:09:25;98726.47;;;1.19;100.00
11108;BME280;5607;48.302;14.294;2023-01-30T09:12:13;98723.50;;;1.59;100.00
11108;BME280;5607;48.302;14.294;2023-01-30T09:15:00;98728.09;;;1.37;99.16
11108;BME280;5607;48.302;14.294;2023-01-30T09:17:47;98731.19;;;1.44;99.75
11108;BME280;5607;48.302;14.294;2023-01-30T09:20:33;98724.41;;;1.25;99.25
11108;BME280;5607;48.302;14.294;2023-01-30T09:23:20;98719.63;;;1.18;98.85
11108;BME280;5607;48.302;14.294;2023-01-30T09:26:07;98721.34;;;1.68;98.04
11108;BME280;5607;48.302;14.294;2023-01-30T09:28:53;98722.75;;;1.57;96.55
11108;BME280;5607;48.302;14.294;2023-01-30T09:31:40;98716.91;;;1.38;97.84
11108;BME280;5607;48.302;14.294;2023-01-30T09:34:27;98712.28;;;1.27;97.68
11108;BME280;5607;48.302;14.294;2023-01-30T09:37:14;98696.72;;;1.64;96.47
11108;BME280;5607;48.302;14.294;2023-01-30T09:40:00;98707.41;;;1.56;95.32
11108;BME280;5607;48.302;14.294;2023-01-30T09:52:48;98685.16;;;1.71;95.82
11108;BME280;5607;48.302;14.294;2023-01-30T09:55:38;98681.91;;;1.51;96.50
11108;BME280;5607;48.302;14.294;2023-01-30T09:58:41;98685.19;;;1.38;96.30
11108;BME280;5607;48.302;14.294;2023-01-30T10:07:56;98653.38;;;1.72;93.72
11108;BME280;5607;48.302;14.294;2023-01-30T10:10:48;98654.44;;;1.68;95.71
11108;BME280;5607;48.302;14.294;2023-01-30T10:26:18;98635.88;;;1.94;95.00
11108;BME280;5607;48.302;14.294;2023-01-30T10:29:13;98602.53;;;2.07;93.04
11108;BME280;5607;48.302;14.294;2023-01-30T10:32:25;98615.22;;;2.26;92.12
11108;BME280;5607;48.302;14.294;2023-01-30T10:35:19;98605.22;;;1.89;91.62
11108;BME280;5607;48.302;14.294;2023-01-30T10:38:32;98620.63;;;2.21;92.28
11108;BME280;5607;48.302;14.294;2023-01-30T10:41:41;98600.00;;;2.37;90.52
11108;BME280;5607;48.302;14.294;2023-01-30T10:44:30;98594.91;;;2.05;90.76
11108;BME280;5607;48.302;14.294;2023-01-30T10:50:40;98557.09;;;2.06;90.27
11108;BME280;5607;48.302;14.294;2023-01-30T10:53:38;98560.94;;;2.29;90.15
11108;BME280;5607;48.302;14.294;2023-01-30T10:56:36;98565.25;;;2.28;89.53
11108;BME280;5607;48.302;14.294;2023-01-30T10:59:40;98563.16;;;2.35;89.46
11108;BME280;5607;48.302;14.294;2023-01-30T11:02:39;98557.13;;;2.50;88.25
11108;BME280;5607;48.302;14.294;2023-01-30T11:05:39;98556.94;;;2.23;89.97
11108;BME280;5607;48.302;14.294;2023-01-30T11:08:30;98547.50;;;2.68;88.45
11108;BME280;5607;48.302;14.294;2023-01-30T11:14:24;98533.13;;;2.78;89.50
11108;BME280;5607;48.302;14.294;2023-01-30T11:17:15;98527.94;;;3.21;89.04
11108;BME280;5607;48.302;14.294;2023-01-30T11:20:33;98523.22;;;3.28;89.21
11108;BME280;5607;48.302;14.294;2023-01-30T11:26:24;98495.56;;;2.88;91.46
11108;BME280;5607;48.302;14.294;2023-01-30T11:29:15;98509.75;;;2.95;90.67
11108;BME280;5607;48.302;14.294;2023-01-30T11:32:04;98502.09;;;2.51;92.70
11108;BME280;5607;48.302;14.294;2023-01-30T11:35:19;98495.09;;;2.53;93.97
11108;BME280;5607;48.302;14.294;2023-01-30T11:38:28;98498.88;;;2.76;91.66
11108;BME280;5607;48.302;14.294;2023-01-30T11:41:20;98483.59;;;2.45;94.37
11108;BME280;5607;48.302;14.294;2023-01-30T11:44:08;98477.41;;;2.47;94.65
11108;BME280;5607;48.302;14.294;2023-01-30T11:46:59;98469.88;;;2.44;95.38
11108;BME280;5607;48.302;14.294;2023-01-30T11:49:48;98468.38;;;2.54;95.47
11108;BME280;5607;48.302;14.294;2023-01-30T11:52:41;98435.09;;;2.51;95.05
11108;BME280;5607;48.302;14.294;2023-01-30T11:55:32;98445.38;;;2.94;94.46
11108;BME280;5607;48.302;14.294;2023-01-30T11:58:20;98438.03;;;2.74;95.25
11108;BME280;5607;48.302;14.294;2023-01-30T12:01:09;98418.53;;;2.55;95.50
11108;BME280;5607;48.302;14.294;2023-01-30T12:03:57;98438.41;;;2.67;97.18
11108;BME280;5607;48.302;14.294;2023-01-30T12:06:44;98440.59;;;2.88;95.82
11108;BME280;5607;48.302;14.294;2023-01-30T12:09:35;98438.75;;;2.76;96.60
11108;BME280;5607;48.302;14.294;2023-01-30T12:12:28;98431.19;;;2.87;96.23
11108;BME280;5607;48.302;14.294;2023-01-30T12:18:26;98393.19;;;3.03;94.95
11108;BME280;5607;48.302;14.294;2023-01-30T12:21:31;98408.72;;;3.16;95.61
11108;BME280;5607;48.302;14.294;2023-01-30T12:24:41;98409.66;;;3.15;96.12
11108;BME280;5607;48.302;14.294;2023-01-30T12:34:02;98403.84;;;2.84;100.00
11108;BME280;5607;48.302;14.294;2023-01-30T12:43:22;98386.84;;;2.67;100.00
11108;BME280;5607;48.302;14.294;2023-01-30T12:46:42;98376.91;;;3.03;100.00
11108;BME280;5607;48.302;14.294;2023-01-30T12:56:46;98361.06;;;2.67;100.00
11108;BME280;5607;48.302;14.294;2023-01-30T13:05:35;98364.38;;;2.69;100.00
11108;BME280;5607;48.302;14.294;2023-01-30T13:11:31;98336.06;;;2.41;100.00
11108;BME280;5607;48.302;14.294;2023-01-30T13:17:45;98358.25;;;2.43;100.00
11108;BME280;5607;48.302;14.294;2023-01-30T13:23:52;98367.09;;;2.39;100.00
11108;BME280;5607;48.302;14.294;2023-01-30T13:26:41;98374.13;;;2.64;100.00
11108;BME280;5607;48.302;14.294;2023-01-30T13:29:36;98379.03;;;2.40;100.00
11108;BME280;5607;48.302;14.294;2023-01-30T13:32:42;98368.72;;;2.40;100.00
11108;BME280;5607;48.302;14.294;2023-01-30T13:35:34;98385.00;;;2.69;100.00
11108;BME280;5607;48.302;14.294;2023-01-30T13:38:25;98370.63;;;2.65;100.00
11108;BME280;5607;48.302;14.294;2023-01-30T13:41:13;98373.41;;;2.48;100.00
11108;BME280;5607;48.302;14.294;2023-01-30T13:44:30;98351.16;;;2.47;100.00
11108;BME280;5607;48.302;14.294;2023-01-30T13:47:26;98359.53;;;2.22;100.00
11108;BME280;5607;48.302;14.294;2023-01-30T13:53:55;98356.38;;;2.60;100.00
11108;BME280;5607;48.302;14.294;2023-01-30T14:00:22;98349.88;;;2.40;100.00
11108;BME280;5607;48.302;14.294;2023-01-30T14:03:14;98342.72;;;2.31;100.00
11108;BME280;5607;48.302;14.294;2023-01-30T14:06:03;98349.63;;;2.02;100.00
11108;BME280;5607;48.302;14.294;2023-01-30T14:08:53;98350.44;;;2.31;100.00
11108;BME280;5607;48.302;14.294;2023-01-30T14:11:55;98357.25;;;2.18;100.00
11108;BME280;5607;48.302;14.294;2023-01-30T14:15:03;98343.81;;;2.27;100.00
11108;BME280;5607;48.302;14.294;2023-01-30T14:20:49;98350.06;;;2.37;100.00
11108;BME280;5607;48.302;14.294;2023-01-30T14:23:36;98373.06;;;2.40;100.00
11108;BME280;5607;48.302;14.294;2023-01-30T14:32:34;98368.28;;;2.34;100.00
11108;BME280;5607;48.302;14.294;2023-01-30T14:35:36;98367.38;;;2.06;100.00
11108;BME280;5607;48.302;14.294;2023-01-30T14:38:24;98376.69;;;1.79;100.00
11108;BME280;5607;48.302;14.294;2023-01-30T14:44:00;98371.22;;;1.99;100.00
11108;BME280;5607;48.302;14.294;2023-01-30T14:46:47;98375.34;;;1.87;100.00
11108;BME280;5607;48.302;14.294;2023-01-30T14:49:42;98377.75;;;2.05;100.00
11108;BME280;5607;48.302;14.294;2023-01-30T14:52:35;98385.41;;;2.06;100.00
11108;BME280;5607;48.302;14.294;2023-01-30T14:55:25;98362.28;;;2.05;100.00
11108;BME280;5607;48.302;14.294;2023-01-30T14:58:22;98387.47;;;1.85;100.00
11108;BME280;5607;48.302;14.294;2023-01-30T15:01:08;98382.53;;;2.11;100.00
11108;BME280;5607;48.302;14.294;2023-01-30T15:03:55;98368.66;;;1.99;100.00
11108;BME280;5607;48.302;14.294;2023-01-30T15:06:42;98378.75;;;2.16;100.00
11108;BME280;5607;48.302;14.294;2023-01-30T15:09:30;98379.69;;;2.15;100.00
11108;BME280;5607;48.302;14.294;2023-01-30T15:31:21;98428.59;;;2.01;100.00
11108;BME280;5607;48.302;14.294;2023-01-30T15:34:18;98439.06;;;1.98;100.00
11108;BME280;5607;48.302;14.294;2023-01-30T15:37:27;98432.81;;;1.88;100.00
11108;BME280;5607;48.302;14.294;2023-01-30T15:43:10;98466.78;;;2.09;100.00
11108;BME280;5607;48.302;14.294;2023-01-30T15:52:48;98501.84;;;2.11;100.00
11108;BME280;5607;48.302;14.294;2023-01-30T15:55:36;98494.28;;;2.08;100.00
11108;BME280;5607;48.302;14.294;2023-01-30T15:58:23;98497.81;;;2.22;100.00
11108;BME280;5607;48.302;14.294;2023-01-30T16:01:17;98505.66;;;2.34;100.00
11108;BME280;5607;48.302;14.294;2023-01-30T16:04:04;98482.72;;;2.15;100.00
11108;BME280;5607;48.302;14.294;2023-01-30T16:06:53;98517.59;;;2.35;100.00
11108;BME280;5607;48.302;14.294;2023-01-30T16:09:39;98502.03;;;2.23;100.00
11108;BME280;5607;48.302;14.294;2023-01-30T16:12:28;98516.53;;;2.54;100.00
11108;BME280;5607;48.302;14.294;2023-01-30T16:15:28;98520.13;;;2.51;100.00
11108;BME280;5607;48.302;14.294;2023-01-30T16:21:16;98527.91;;;2.80;100.00
11108;BME280;5607;48.302;14.294;2023-01-30T16:24:07;98545.09;;;2.79;100.00
11108;BME280;5607;48.302;14.294;2023-01-30T16:27:05;98545.13;;;2.93;100.00
11108;BME280;5607;48.302;14.294;2023-01-30T16:29:56;98527.53;;;2.86;100.00
11108;BME280;5607;48.302;14.294;2023-01-30T16:32:44;98547.22;;;3.01;100.00
11108;BME280;5607;48.302;14.294;2023-01-30T16:35:31;98560.56;;;3.08;100.00
11108;BME280;5607;48.302;14.294;2023-01-30T16:38:32;98564.72;;;3.10;100.00
11108;BME280;5607;48.302;14.294;2023-01-30T16:41:34;98572.44;;;3.10;100.00
11108;BME280;5607;48.302;14.294;2023-01-30T16:44:23;98555.97;;;3.13;100.00
11108;BME280;5607;48.302;14.294;2023-01-30T16:47:24;98557.06;;;3.09;100.00
11108;BME280;5607;48.302;14.294;2023-01-30T16:50:20;98567.03;;;3.01;100.00
11108;BME280;5607;48.302;14.294;2023-01-30T16:53:12;98566.66;;;2.92;100.00
11108;BME280;5607;48.302;14.294;2023-01-30T16:56:09;98562.69;;;3.01;100.00
11108;BME280;5607;48.302;14.294;2023-01-30T16:59:00;98564.28;;;3.18;100.00
11108;BME280;5607;48.302;14.294;2023-01-30T17:01:47;98564.34;;;3.16;100.00
11108;BME280;5607;48.302;14.294;2023-01-30T17:04:34;98555.03;;;3.14;100.00
11108;BME280;5607;48.302;14.294;2023-01-30T17:07:33;98561.22;;;3.11;100.00
11108;BME280;5607;48.302;14.294;2023-01-30T17:13:31;98553.28;;;3.14;100.00
11108;BME280;5607;48.302;14.294;2023-01-30T17:19:08;98547.88;;;3.05;100.00
11108;BME280;5607;48.302;14.294;2023-01-30T17:21:56;98564.28;;;3.18;100.00
11108;BME280;5607;48.302;14.294;2023-01-30T17:24:43;98564.16;;;3.19;100.00
11108;BME280;5607;48.302;14.294;2023-01-30T17:27:30;98547.13;;;3.17;100.00
11108;BME280;5607;48.302;14.294;2023-01-30T17:30:18;98541.78;;;3.20;100.00